createdAt,value
2022-09-04T00:00:57.743Z,82.54
2022-09-04T00:03:54.300Z,82.24
2022-09-04T00:04:54.313Z,82.44
2022-09-04T00:05:54.265Z,82.34
2022-09-04T00:06:54.343Z,82.58
2022-09-04T00:07:54.031Z,82.24
2022-09-04T00:08:53.998Z,82.95
2022-09-04T00:09:53.923Z,83.39
2022-09-04T00:10:54.014Z,83.15
2022-09-04T00:11:54.050Z,83.25
2022-09-04T00:12:53.941Z,83.09
2022-09-04T00:13:53.858Z,82.78
2022-09-04T00:14:53.911Z,82.68
2022-09-04T00:15:53.847Z,82.28
2022-09-04T00:16:53.919Z,82.68
2022-09-04T00:17:53.803Z,82.17
2022-09-04T00:18:53.809Z,81.57
2022-09-04T00:19:53.830Z,82.98
2022-09-04T00:20:53.766Z,82.89
2022-09-04T00:21:53.794Z,83.12
2022-09-04T00:22:53.740Z,84.50
2022-09-04T00:23:54.189Z,83.39
2022-09-04T00:24:53.727Z,84.50
2022-09-04T00:25:53.732Z,83.63
2022-09-04T00:26:53.757Z,83.43
2022-09-04T00:27:56.718Z,83.83
2022-09-04T00:28:53.736Z,83.83
2022-09-04T00:29:53.674Z,84.24
2022-09-04T00:30:53.688Z,84.75
2022-09-04T00:31:53.648Z,84.85
2022-09-04T00:32:53.735Z,84.64
2022-09-04T00:33:53.627Z,84.55
2022-09-04T00:34:53.626Z,85.15
2022-09-04T00:35:53.702Z,84.95
2022-09-04T00:36:53.626Z,84.95
2022-09-04T00:37:53.602Z,84.85
2022-09-04T00:38:53.607Z,85.66
2022-09-04T00:39:53.648Z,85.96
2022-09-04T00:40:53.606Z,86.27
2022-09-04T00:41:53.540Z,85.36
2022-09-04T00:42:53.550Z,85.66
2022-09-04T00:43:53.590Z,85.66
2022-09-04T00:44:53.484Z,85.39
2022-09-04T00:45:53.546Z,85.46
2022-09-04T00:46:53.488Z,85.09
2022-09-04T00:47:53.515Z,85.09
2022-09-04T00:48:53.489Z,86.31
2022-09-04T00:49:53.432Z,86.31
2022-09-04T00:50:53.419Z,86.10
2022-09-04T00:51:53.442Z,86.61
2022-09-04T00:52:53.771Z,85.90
2022-09-04T00:53:54.414Z,85.60
2022-09-04T00:54:53.399Z,86.51
2022-09-04T00:55:53.371Z,86.41
2022-09-04T00:56:53.339Z,86.00
2022-09-04T00:57:53.436Z,86.41
2022-09-04T00:58:53.341Z,86.51
2022-09-04T00:59:53.315Z,86.51
2022-09-04T01:00:53.411Z,87.12
2022-09-04T01:01:53.447Z,87.22
2022-09-04T01:02:53.347Z,87.32
2022-09-04T01:03:53.356Z,86.86
2022-09-04T01:04:53.251Z,87.16
2022-09-04T01:05:53.266Z,87.52
2022-09-04T01:06:53.254Z,86.51
2022-09-04T01:07:53.220Z,87.16
2022-09-04T01:08:56.365Z,86.86
2022-09-04T01:09:53.226Z,86.76
2022-09-04T01:10:53.205Z,87.37
2022-09-04T01:11:53.241Z,87.46
2022-09-04T01:12:53.160Z,88.13
2022-09-04T01:13:53.247Z,88.58
2022-09-04T01:14:53.408Z,87.97
2022-09-04T01:15:53.206Z,88.68
2022-09-04T01:16:53.160Z,87.67
2022-09-04T01:17:53.154Z,87.46
2022-09-04T01:18:53.142Z,87.16
2022-09-04T01:19:53.125Z,87.57
2022-09-04T01:20:53.088Z,87.16
2022-09-04T01:21:53.081Z,87.37
2022-09-04T01:22:53.062Z,87.46
2022-09-04T01:23:53.171Z,87.77
2022-09-04T01:24:53.034Z,87.57
2022-09-04T01:25:53.109Z,88.28
2022-09-04T01:26:53.012Z,87.87
2022-09-04T01:27:53.052Z,88.12
2022-09-04T01:28:53.044Z,88.32
2022-09-04T01:29:52.982Z,87.92
2022-09-04T01:30:52.972Z,87.71
2022-09-04T01:31:53.027Z,87.81
2022-09-04T01:32:52.977Z,88.01
2022-09-04T01:33:53.008Z,88.48
2022-09-04T01:34:52.922Z,88.52
2022-09-04T01:35:52.935Z,88.32
2022-09-04T01:36:52.901Z,88.12
2022-09-04T01:37:52.927Z,88.21
2022-09-04T01:38:52.863Z,88.32
2022-09-04T01:39:52.937Z,88.21
2022-09-04T01:40:52.877Z,87.95
2022-09-04T01:41:52.841Z,88.26
2022-09-04T01:42:52.835Z,88.56
2022-09-04T01:43:52.856Z,89.28
2022-09-04T01:44:52.863Z,89.17
2022-09-04T01:45:52.999Z,88.97
2022-09-04T01:46:52.864Z,89.28
2022-09-04T01:47:52.797Z,89.37
2022-09-04T01:48:52.781Z,88.97
2022-09-04T01:49:52.760Z,88.97
2022-09-04T01:50:52.808Z,89.28
2022-09-04T01:51:52.734Z,88.97
2022-09-04T01:52:52.760Z,88.97
2022-09-04T01:53:52.719Z,89.17
2022-09-04T01:54:52.842Z,89.48
2022-09-04T01:55:52.707Z,90.09
2022-09-04T01:56:52.777Z,89.68
2022-09-04T01:57:52.684Z,89.62
2022-09-04T01:58:52.708Z,89.78
2022-09-04T01:59:53.823Z,90.49
2022-09-04T02:00:55.492Z,90.39
2022-09-04T02:01:53.706Z,89.83
2022-09-04T02:02:53.281Z,89.68
2022-09-04T02:03:52.615Z,90.13
2022-09-04T02:04:52.612Z,90.39
2022-09-04T02:05:52.639Z,90.33
2022-09-04T02:06:52.603Z,90.19
2022-09-04T02:07:52.557Z,89.98
2022-09-04T02:08:55.233Z,90.19
2022-09-04T02:09:53.916Z,90.49
2022-09-04T02:10:52.566Z,90.39
2022-09-04T02:11:55.377Z,90.49
2022-09-04T02:12:52.495Z,90.29
2022-09-04T02:13:52.497Z,90.39
2022-09-04T02:14:52.498Z,90.49
2022-09-04T02:15:52.465Z,90.70
2022-09-04T02:16:52.507Z,90.39
2022-09-04T02:17:52.449Z,90.90
2022-09-04T02:18:52.461Z,91.20
2022-09-04T02:19:52.461Z,90.90
2022-09-04T02:20:52.424Z,91.10
2022-09-04T02:21:52.416Z,90.80
2022-09-04T02:22:52.413Z,91.00
2022-09-04T02:23:52.396Z,90.90
2022-09-04T02:24:52.361Z,90.39
2022-09-04T02:25:52.347Z,90.33
2022-09-04T02:26:52.355Z,90.33
2022-09-04T02:27:52.346Z,90.84
2022-09-04T02:28:52.332Z,90.70
2022-09-04T02:29:52.298Z,90.49
2022-09-04T02:30:54.491Z,90.33
2022-09-04T02:31:52.327Z,90.33
2022-09-04T02:32:52.357Z,90.39
2022-09-04T02:33:52.245Z,90.44
2022-09-04T02:34:52.306Z,90.39
2022-09-04T02:35:52.228Z,90.19
2022-09-04T02:36:52.224Z,90.29
2022-09-04T02:37:52.230Z,90.33
2022-09-04T02:38:52.282Z,90.29
2022-09-04T02:39:52.331Z,90.39
2022-09-04T02:40:52.205Z,90.70
2022-09-04T02:41:52.167Z,90.23
2022-09-04T02:42:52.171Z,90.19
2022-09-04T02:43:52.248Z,90.09
2022-09-04T02:44:52.140Z,90.09
2022-09-04T02:45:52.229Z,90.33
2022-09-04T02:46:52.218Z,90.70
2022-09-04T02:47:52.094Z,90.59
2022-09-04T02:48:52.091Z,90.59
2022-09-04T02:49:52.150Z,91.10
2022-09-04T02:50:52.166Z,91.00
2022-09-04T02:51:52.120Z,91.10
2022-09-04T02:52:52.088Z,90.90
2022-09-04T02:53:52.137Z,91.10
2022-09-04T02:54:52.033Z,90.90
2022-09-04T02:55:52.233Z,90.49
2022-09-04T02:56:52.048Z,91.00
2022-09-04T02:57:52.051Z,90.90
2022-09-04T02:58:51.971Z,91.20
2022-09-04T02:59:52.013Z,90.49
2022-09-04T03:00:51.988Z,90.09
2022-09-04T03:01:52.062Z,90.49
2022-09-04T03:02:52.076Z,90.59
2022-09-04T03:03:52.082Z,90.74
2022-09-04T03:04:51.917Z,91.30
2022-09-04T03:05:51.882Z,91.41
2022-09-04T03:06:51.893Z,91.51
2022-09-04T03:07:51.921Z,91.51
2022-09-04T03:08:51.881Z,91.71
2022-09-04T03:09:51.858Z,91.41
2022-09-04T03:10:51.902Z,91.41
2022-09-04T03:11:51.912Z,91.65
2022-09-04T03:12:51.918Z,91.71
2022-09-04T03:13:51.831Z,91.75
2022-09-04T03:14:51.789Z,91.61
2022-09-04T03:15:51.848Z,91.41
2022-09-04T03:16:51.774Z,91.55
2022-09-04T03:17:51.758Z,91.61
2022-09-04T03:18:51.873Z,91.61
2022-09-04T03:19:51.848Z,91.41
2022-09-04T03:20:51.770Z,91.61
2022-09-04T03:21:51.732Z,91.71
2022-09-04T03:22:51.699Z,91.71
2022-09-04T03:23:51.739Z,91.51
2022-09-04T03:24:51.717Z,91.41
2022-09-04T03:25:51.722Z,92.02
2022-09-04T03:26:51.728Z,91.55
2022-09-04T03:27:51.636Z,90.84
2022-09-04T03:28:51.649Z,91.10
2022-09-04T03:29:51.664Z,91.10
2022-09-04T03:30:51.663Z,90.84
2022-09-04T03:31:51.801Z,91.30
2022-09-04T03:32:51.598Z,91.20
2022-09-04T03:33:51.580Z,91.51
2022-09-04T03:34:51.613Z,91.41
2022-09-04T03:35:51.576Z,91.61
2022-09-04T03:36:51.630Z,91.61
2022-09-04T03:37:51.538Z,91.51
2022-09-04T03:38:51.573Z,91.55
2022-09-04T03:39:51.617Z,91.51
2022-09-04T03:40:51.486Z,91.61
2022-09-04T03:41:51.517Z,91.35
2022-09-04T03:42:51.484Z,91.75
2022-09-04T03:43:51.494Z,91.55
2022-09-04T03:44:52.321Z,91.55
2022-09-04T03:45:51.529Z,91.35
2022-09-04T03:46:51.511Z,91.75
2022-09-04T03:47:51.460Z,91.86
2022-09-04T03:48:51.408Z,91.75
2022-09-04T03:49:52.267Z,91.86
2022-09-04T03:50:51.480Z,91.75
2022-09-04T03:51:51.388Z,91.35
2022-09-04T03:52:51.379Z,91.25
2022-09-04T03:53:51.405Z,91.65
2022-09-04T03:54:51.387Z,91.80
2022-09-04T03:55:51.309Z,91.96
2022-09-04T03:56:51.319Z,91.55
2022-09-04T03:57:51.285Z,91.86
2022-09-04T03:58:51.321Z,91.60
2022-09-04T03:59:51.331Z,91.60
2022-09-04T04:00:51.332Z,91.69
2022-09-04T04:01:51.294Z,91.60
2022-09-04T04:02:51.345Z,92.00
2022-09-04T04:03:51.241Z,92.10
2022-09-04T04:04:51.245Z,91.80
2022-09-04T04:05:51.298Z,92.10
2022-09-04T04:06:51.323Z,92.00
2022-09-04T04:07:51.229Z,92.00
2022-09-04T04:08:51.174Z,92.10
2022-09-04T04:09:51.183Z,91.90
2022-09-04T04:10:51.216Z,92.00
2022-09-04T04:11:51.142Z,92.00
2022-09-04T04:12:51.170Z,92.10
2022-09-04T04:13:51.141Z,92.41
2022-09-04T04:14:51.118Z,92.61
2022-09-04T04:15:51.179Z,92.91
2022-09-04T04:16:56.045Z,93.22
2022-09-04T04:17:52.062Z,93.22
2022-09-04T04:18:51.058Z,93.32
2022-09-04T04:19:51.054Z,92.61
2022-09-04T04:20:51.081Z,92.30
2022-09-04T04:21:51.051Z,91.90
2022-09-04T04:22:51.003Z,91.90
2022-09-04T04:23:51.026Z,92.30
2022-09-04T04:24:50.993Z,92.82
2022-09-04T04:25:52.606Z,92.51
2022-09-04T04:26:54.698Z,92.51
2022-09-04T04:27:50.984Z,91.90
2022-09-04T04:28:50.954Z,92.10
2022-09-04T04:29:50.941Z,93.32
2022-09-04T04:30:50.930Z,93.02
2022-09-04T04:31:50.931Z,93.12
2022-09-04T04:32:51.030Z,92.96
2022-09-04T04:33:50.897Z,92.91
2022-09-04T04:34:50.877Z,93.02
2022-09-04T04:35:50.907Z,92.96
2022-09-04T04:36:50.891Z,92.55
2022-09-04T04:37:50.887Z,92.65
2022-09-04T04:38:50.828Z,92.51
2022-09-04T04:39:50.917Z,92.55
2022-09-04T04:40:50.863Z,93.06
2022-09-04T04:41:50.811Z,92.55
2022-09-04T04:42:50.793Z,92.55
2022-09-04T04:43:50.796Z,92.55
2022-09-04T04:44:50.869Z,92.55
2022-09-04T04:45:50.764Z,92.76
2022-09-04T04:46:50.766Z,92.65
2022-09-04T04:47:50.737Z,91.74
2022-09-04T04:48:50.867Z,92.45
2022-09-04T04:49:50.769Z,92.29
2022-09-04T04:50:50.703Z,92.49
2022-09-04T04:51:50.695Z,92.19
2022-09-04T04:52:50.764Z,92.19
2022-09-04T04:53:50.666Z,92.19
2022-09-04T04:54:50.701Z,92.09
2022-09-04T04:55:50.685Z,91.88
2022-09-04T04:56:50.638Z,91.78
2022-09-04T04:57:50.626Z,92.09
2022-09-04T04:58:50.629Z,91.99
2022-09-04T04:59:50.634Z,92.60
2022-09-04T05:00:50.654Z,92.60
2022-09-04T05:01:50.763Z,92.64
2022-09-04T05:02:50.605Z,92.40
2022-09-04T05:03:50.610Z,93.01
2022-09-04T05:04:50.597Z,92.60
2022-09-04T05:05:50.572Z,92.84
2022-09-04T05:06:50.560Z,92.74
2022-09-04T05:07:50.509Z,92.70
2022-09-04T05:08:50.518Z,92.74
2022-09-04T05:09:50.485Z,92.64
2022-09-04T05:10:50.504Z,92.54
2022-09-04T05:11:50.568Z,92.44
2022-09-04T05:12:50.507Z,93.05
2022-09-04T05:13:52.731Z,92.33
2022-09-04T05:14:50.537Z,92.54
2022-09-04T05:16:07.941Z,92.74
2022-09-04T05:16:55.609Z,92.64
2022-09-04T05:17:50.463Z,92.64
2022-09-04T05:18:50.442Z,92.64
2022-09-04T05:19:52.309Z,93.15
2022-09-04T05:20:50.422Z,93.05
2022-09-04T05:21:50.365Z,93.55
2022-09-04T05:22:50.401Z,93.15
2022-09-04T05:23:50.352Z,93.01
2022-09-04T05:24:50.330Z,92.84
2022-09-04T05:25:51.344Z,93.05
2022-09-04T05:26:50.414Z,93.01
2022-09-04T05:27:50.293Z,92.94
2022-09-04T05:28:50.298Z,92.90
2022-09-04T05:29:50.335Z,93.15
2022-09-04T05:30:50.933Z,93.71
2022-09-04T05:31:50.268Z,93.66
2022-09-04T05:32:50.900Z,93.21
2022-09-04T05:33:54.036Z,92.80
2022-09-04T05:34:50.217Z,93.10
2022-09-04T05:35:53.024Z,93.62
2022-09-04T05:36:50.196Z,93.41
2022-09-04T05:37:50.177Z,93.41
2022-09-04T05:38:50.330Z,93.10
2022-09-04T05:39:50.231Z,93.31
2022-09-04T05:40:50.205Z,93.51
2022-09-04T05:41:50.140Z,93.10
2022-09-04T05:42:50.155Z,93.82
2022-09-04T05:43:50.191Z,93.26
2022-09-04T05:44:50.179Z,93.26
2022-09-04T05:45:50.171Z,93.37
2022-09-04T05:46:52.206Z,93.57
2022-09-04T05:47:50.144Z,93.47
2022-09-04T05:48:50.092Z,93.26
2022-09-04T05:49:50.090Z,93.47
2022-09-04T05:50:50.066Z,93.16
2022-09-04T05:51:50.030Z,93.26
2022-09-04T05:52:50.093Z,93.37
2022-09-04T05:53:50.009Z,93.43
2022-09-04T05:54:49.997Z,93.02
2022-09-04T05:55:50.036Z,93.26
2022-09-04T05:56:49.977Z,93.22
2022-09-04T05:57:49.989Z,93.12
2022-09-04T05:58:50.003Z,93.63
2022-09-04T05:59:49.964Z,93.43
2022-09-04T06:00:49.949Z,93.32
2022-09-04T06:01:51.967Z,92.87
2022-09-04T06:02:49.965Z,93.22
2022-09-04T06:03:49.901Z,93.59
2022-09-04T06:04:49.884Z,92.97
2022-09-04T06:05:49.931Z,92.67
2022-09-04T06:06:49.884Z,92.83
2022-09-04T06:07:49.921Z,93.00
2022-09-04T06:08:49.903Z,91.46
2022-09-04T06:09:49.920Z,90.62
2022-09-04T06:10:49.865Z,87.66
2022-09-04T06:11:49.896Z,85.31
2022-09-04T06:12:49.826Z,83.93
2022-09-04T06:13:49.819Z,83.51
2022-09-04T06:14:49.797Z,81.32
2022-09-04T06:15:49.837Z,76.52
2022-09-04T06:16:49.807Z,76.11
2022-09-04T06:17:49.759Z,78.14
2022-09-04T06:18:49.758Z,73.66
2022-09-04T06:19:49.878Z,71.83
2022-09-04T06:20:49.851Z,72.99
2022-09-04T06:21:49.758Z,70.12
2022-09-04T06:22:53.801Z,67.96
2022-09-04T06:23:50.710Z,65.91
2022-09-04T06:24:49.675Z,67.27
2022-09-04T06:25:49.725Z,65.34
2022-09-04T06:26:49.733Z,65.41
2022-09-04T06:27:49.660Z,63.95
2022-09-04T06:28:49.761Z,63.95
2022-09-04T06:29:49.611Z,63.88
2022-09-04T06:30:49.758Z,64.04
2022-09-04T06:31:49.611Z,64.34
2022-09-04T06:32:49.579Z,64.17
2022-09-04T06:33:49.628Z,65.00
2022-09-04T06:34:49.558Z,64.80
2022-09-04T06:35:49.590Z,64.43
2022-09-04T06:36:49.542Z,65.26
2022-09-04T06:37:49.602Z,65.69
2022-09-04T06:38:49.512Z,65.62
2022-09-04T06:39:49.573Z,66.02
2022-09-04T06:40:49.560Z,66.25
2022-09-04T06:41:49.551Z,66.86
2022-09-04T06:42:49.466Z,68.79
2022-09-04T06:43:49.456Z,69.49
2022-09-04T06:44:50.510Z,68.82
2022-09-04T06:45:49.461Z,67.82
2022-09-04T06:46:49.476Z,68.05
2022-09-04T06:47:49.433Z,67.96
2022-09-04T06:48:49.484Z,70.89
2022-09-04T06:49:49.416Z,71.39
2022-09-04T06:50:49.371Z,73.00
2022-09-04T06:51:57.199Z,71.83
2022-09-04T06:52:50.024Z,70.73
2022-09-04T06:53:49.590Z,69.85
2022-09-04T06:54:49.451Z,70.70
2022-09-04T06:55:49.724Z,71.80
2022-09-04T06:56:49.404Z,72.33
2022-09-04T06:57:49.312Z,72.44
2022-09-04T06:58:49.325Z,72.57
2022-09-04T06:59:49.281Z,74.35
2022-09-04T07:00:49.327Z,75.05
2022-09-04T07:01:49.359Z,75.15
2022-09-04T07:02:49.367Z,74.35
2022-09-04T07:03:49.255Z,74.74
2022-09-04T07:04:49.219Z,74.21
2022-09-04T07:05:49.234Z,73.74
2022-09-04T07:06:49.189Z,74.31
2022-09-04T07:07:49.226Z,76.21
2022-09-04T07:08:49.169Z,74.71
2022-09-04T07:09:49.156Z,74.31
2022-09-04T07:10:49.163Z,75.21
2022-09-04T07:11:49.154Z,75.21
2022-09-04T07:12:49.201Z,74.01
2022-09-04T07:13:49.121Z,76.12
2022-09-04T07:14:49.100Z,75.82
2022-09-04T07:15:49.153Z,76.02
2022-09-04T07:16:49.120Z,75.27
2022-09-04T07:17:49.067Z,76.15
2022-09-04T07:18:49.054Z,76.45
2022-09-04T07:19:49.045Z,74.37
2022-09-04T07:20:49.038Z,71.66
2022-09-04T07:21:49.047Z,70.83
2022-09-04T07:22:49.046Z,70.12
2022-09-04T07:23:49.008Z,70.09
2022-09-04T07:24:49.006Z,68.69
2022-09-04T07:25:48.982Z,69.76
2022-09-04T07:26:48.984Z,67.86
2022-09-04T07:27:48.974Z,69.46
2022-09-04T07:28:48.946Z,68.13
2022-09-04T07:29:48.951Z,69.43
2022-09-04T07:30:48.919Z,70.69
2022-09-04T07:31:48.957Z,71.16
2022-09-04T07:32:48.896Z,70.03
2022-09-04T07:33:48.946Z,68.49
2022-09-04T07:34:48.874Z,67.60
2022-09-04T07:35:48.868Z,67.36
2022-09-04T07:36:48.851Z,65.07
2022-09-04T07:37:49.250Z,66.17
2022-09-04T07:38:50.452Z,66.33
2022-09-04T07:39:48.862Z,63.44
2022-09-04T07:40:48.809Z,64.90
2022-09-04T07:41:48.826Z,66.30
2022-09-04T07:42:48.790Z,70.86
2022-09-04T07:43:53.968Z,67.33
2022-09-04T07:44:49.782Z,64.94
2022-09-04T07:45:48.832Z,61.16
2022-09-04T07:46:48.756Z,61.88
2022-09-04T07:47:48.771Z,64.28
2022-09-04T07:48:48.731Z,63.58
2022-09-04T07:49:48.720Z,64.07
2022-09-04T07:50:48.736Z,63.58
2022-09-04T07:51:48.709Z,62.68
2022-09-04T07:52:48.681Z,62.18
2022-09-04T07:53:48.684Z,61.58
2022-09-04T07:54:48.654Z,63.68
2022-09-04T07:55:48.657Z,61.19
2022-09-04T07:56:48.631Z,63.98
2022-09-04T07:57:48.621Z,60.16
2022-09-04T07:58:48.652Z,62.55
2022-09-04T07:59:48.616Z,62.95
2022-09-04T08:00:48.592Z,60.29
2022-09-04T08:01:48.641Z,58.83
2022-09-04T08:02:48.575Z,60.75
2022-09-04T08:03:54.523Z,61.27
2022-09-04T08:04:49.625Z,62.97
2022-09-04T08:05:48.554Z,64.37
2022-09-04T08:06:48.521Z,61.18
2022-09-04T08:07:48.525Z,62.40
2022-09-04T08:08:48.511Z,62.77
2022-09-04T08:09:48.495Z,61.90
2022-09-04T08:10:48.511Z,64.07
2022-09-04T08:11:48.469Z,62.97
2022-09-04T08:12:48.459Z,63.94
2022-09-04T08:13:48.454Z,61.98
2022-09-04T08:14:48.436Z,61.77
2022-09-04T08:15:48.511Z,61.87
2022-09-04T08:16:48.456Z,62.27
2022-09-04T08:17:48.403Z,61.38
2022-09-04T08:18:48.403Z,64.97
2022-09-04T08:19:48.451Z,63.97
2022-09-04T08:20:48.367Z,60.48
2022-09-04T08:21:48.363Z,61.35
2022-09-04T08:22:48.366Z,60.97
2022-09-04T08:23:48.347Z,61.44
2022-09-04T08:24:48.362Z,61.44
2022-09-04T08:25:48.311Z,61.25
2022-09-04T08:26:48.310Z,59.35
2022-09-04T08:27:48.303Z,61.55
2022-09-04T08:28:48.306Z,61.38
2022-09-04T08:29:48.266Z,61.47
2022-09-04T08:30:48.354Z,60.48
2022-09-04T08:31:48.249Z,62.48
2022-09-04T08:32:48.239Z,62.77
2022-09-04T08:33:48.233Z,61.44
2022-09-04T08:34:48.232Z,62.15
2022-09-04T08:35:48.202Z,61.74
2022-09-04T08:36:48.205Z,60.85
2022-09-04T08:37:48.181Z,60.42
2022-09-04T08:38:48.176Z,60.42
2022-09-04T08:39:48.327Z,61.22
2022-09-04T08:40:50.184Z,59.42
2022-09-04T08:41:48.144Z,60.12
2022-09-04T08:42:48.134Z,59.22
2022-09-04T08:43:48.144Z,59.72
2022-09-04T08:44:48.106Z,60.25
2022-09-04T08:45:48.188Z,59.65
2022-09-04T08:46:48.152Z,59.15
2022-09-04T08:47:48.067Z,60.45
2022-09-04T08:48:48.079Z,60.15
2022-09-04T08:49:48.048Z,59.82
2022-09-04T08:50:48.034Z,59.12
2022-09-04T08:51:48.666Z,59.42
2022-09-04T08:52:48.012Z,59.25
2022-09-04T08:53:48.004Z,61.05
2022-09-04T08:54:48.025Z,61.35
2022-09-04T08:55:47.982Z,60.45
2022-09-04T08:56:47.996Z,60.68
2022-09-04T08:57:47.979Z,61.85
2022-09-04T08:58:48.290Z,61.74
2022-09-04T08:59:47.963Z,60.95
2022-09-04T09:00:47.924Z,61.91
2022-09-04T09:01:47.965Z,61.52
2022-09-04T09:02:47.967Z,61.79
2022-09-04T09:03:47.929Z,61.19
2022-09-04T09:04:48.074Z,58.50
2022-09-04T09:05:47.875Z,56.13
2022-09-04T09:06:47.858Z,58.08
2022-09-04T09:07:47.868Z,58.88
2022-09-04T09:08:47.863Z,60.48
2022-09-04T09:09:47.825Z,59.45
2022-09-04T09:10:47.836Z,60.95
2022-09-04T09:11:47.822Z,61.91
2022-09-04T09:12:47.817Z,62.61
2022-09-04T09:13:47.782Z,61.39
2022-09-04T09:14:47.792Z,59.69
2022-09-04T09:15:47.763Z,58.40
2022-09-04T09:16:47.793Z,58.67
2022-09-04T09:17:47.736Z,58.37
2022-09-04T09:18:47.733Z,58.76
2022-09-04T09:19:47.739Z,59.64
2022-09-04T09:20:47.704Z,57.05
2022-09-04T09:21:47.691Z,58.04
2022-09-04T09:22:47.704Z,57.84
2022-09-04T09:23:47.693Z,58.04
2022-09-04T09:24:47.681Z,56.35
2022-09-04T09:25:47.651Z,57.37
2022-09-04T09:26:47.636Z,57.64
2022-09-04T09:27:47.647Z,56.87
2022-09-04T09:28:47.636Z,57.97
2022-09-04T09:29:47.604Z,58.84
2022-09-04T09:30:47.628Z,58.54
2022-09-04T09:31:47.588Z,59.31
2022-09-04T09:32:47.590Z,58.11
2022-09-04T09:33:47.603Z,59.11
2022-09-04T09:34:47.567Z,56.52
2022-09-04T09:35:47.541Z,52.94
2022-09-04T09:36:47.530Z,54.96
2022-09-04T09:37:47.537Z,55.35
2022-09-04T09:38:47.522Z,56.15
2022-09-04T09:39:47.559Z,56.65
2022-09-04T09:40:47.547Z,55.35
2022-09-04T09:41:47.508Z,56.40
2022-09-04T09:42:47.477Z,58.40
2022-09-04T09:43:47.461Z,57.57
2022-09-04T09:44:47.491Z,56.77
2022-09-04T09:45:47.535Z,57.17
2022-09-04T09:46:47.442Z,56.85
2022-09-04T09:47:47.515Z,56.95
2022-09-04T09:48:47.410Z,58.31
2022-09-04T09:49:47.413Z,58.11
2022-09-04T09:50:47.408Z,58.39
2022-09-04T09:51:47.378Z,56.10
2022-09-04T09:52:47.387Z,57.49
2022-09-04T09:53:47.685Z,55.80
2022-09-04T09:54:47.400Z,55.00
2022-09-04T09:55:47.331Z,55.60
2022-09-04T09:56:53.864Z,55.82
2022-09-04T09:57:48.356Z,55.30
2022-09-04T09:58:47.286Z,56.79
2022-09-04T09:59:47.286Z,54.90
2022-09-04T10:00:47.375Z,55.00
2022-09-04T10:01:47.253Z,54.43
2022-09-04T10:02:47.381Z,55.53
2022-09-04T10:03:47.230Z,54.80
2022-09-04T10:04:47.272Z,55.00
2022-09-04T10:05:47.216Z,55.60
2022-09-04T10:06:47.213Z,53.91
2022-09-04T10:07:47.237Z,55.10
2022-09-04T10:08:47.175Z,56.00
2022-09-04T10:09:47.225Z,56.59
2022-09-04T10:10:47.209Z,55.90
2022-09-04T10:11:47.166Z,56.20
2022-09-04T10:12:47.133Z,55.10
2022-09-04T10:13:47.158Z,55.10
2022-09-04T10:14:47.138Z,55.40
2022-09-04T10:15:47.143Z,54.11
2022-09-04T10:16:47.184Z,56.49
2022-09-04T10:17:47.142Z,56.49
2022-09-04T10:18:47.064Z,56.79
2022-09-04T10:19:47.121Z,55.60
2022-09-04T10:20:47.050Z,56.47
2022-09-04T10:21:47.077Z,56.37
2022-09-04T10:22:47.080Z,54.97
2022-09-04T10:23:47.010Z,54.68
2022-09-04T10:24:47.006Z,53.41
2022-09-04T10:25:47.019Z,56.10
2022-09-04T10:26:46.987Z,54.01
2022-09-04T10:27:47.028Z,54.50
2022-09-04T10:28:46.959Z,55.60
2022-09-04T10:29:46.960Z,55.70
2022-09-04T10:30:47.036Z,54.80
2022-09-04T10:31:46.947Z,56.17
2022-09-04T10:32:46.917Z,55.00
2022-09-04T10:33:46.908Z,54.21
2022-09-04T10:34:46.909Z,54.80
2022-09-04T10:35:46.911Z,55.08
2022-09-04T10:36:46.897Z,57.06
2022-09-04T10:37:46.900Z,56.17
2022-09-04T10:38:46.849Z,58.16
2022-09-04T10:39:46.960Z,55.15
2022-09-04T10:40:50.738Z,56.04
2022-09-04T10:41:46.907Z,55.42
2022-09-04T10:42:46.843Z,56.91
2022-09-04T10:43:46.810Z,55.42
2022-09-04T10:44:46.796Z,54.93
2022-09-04T10:45:46.870Z,55.12
2022-09-04T10:46:46.766Z,55.82
2022-09-04T10:47:46.773Z,55.22
2022-09-04T10:48:46.756Z,54.72
2022-09-04T10:49:46.731Z,54.82
2022-09-04T10:50:46.723Z,56.12
2022-09-04T10:51:46.860Z,54.93
2022-09-04T10:52:46.716Z,54.72
2022-09-04T10:53:46.704Z,54.82
2022-09-04T10:54:46.697Z,54.82
2022-09-04T10:55:46.681Z,53.91
2022-09-04T10:56:46.656Z,53.04
2022-09-04T10:57:46.682Z,55.25
2022-09-04T10:58:46.659Z,54.85
2022-09-04T10:59:46.639Z,54.06
2022-09-04T11:00:46.646Z,54.95
2022-09-04T11:01:46.599Z,56.04
2022-09-04T11:02:46.640Z,54.08
2022-09-04T11:03:46.594Z,55.57
2022-09-04T11:04:46.566Z,58.13
2022-09-04T11:05:46.551Z,55.18
2022-09-04T11:06:46.571Z,56.04
2022-09-04T11:07:46.535Z,56.94
2022-09-04T11:08:46.517Z,54.75
2022-09-04T11:09:46.542Z,54.85
2022-09-04T11:10:46.533Z,54.35
2022-09-04T11:11:46.495Z,54.75
2022-09-04T11:12:46.471Z,53.09
2022-09-04T11:13:51.122Z,54.78
2022-09-04T11:14:47.491Z,54.68
2022-09-04T11:15:46.458Z,56.10
2022-09-04T11:16:46.483Z,55.30
2022-09-04T11:17:46.456Z,56.07
2022-09-04T11:18:46.436Z,55.47
2022-09-04T11:19:46.393Z,55.47
2022-09-04T11:20:46.381Z,55.47
2022-09-04T11:21:46.382Z,55.18
2022-09-04T11:22:46.365Z,56.37
2022-09-04T11:23:46.371Z,56.47
2022-09-04T11:24:46.335Z,56.87
2022-09-04T11:25:46.320Z,58.26
2022-09-04T11:26:46.379Z,56.37
2022-09-04T11:27:46.311Z,55.67
2022-09-04T11:28:46.321Z,55.27
2022-09-04T11:29:46.279Z,54.48
2022-09-04T11:30:46.271Z,55.10
2022-09-04T11:31:46.347Z,55.27
2022-09-04T11:32:46.260Z,58.39
2022-09-04T11:33:46.240Z,56.20
2022-09-04T11:34:46.273Z,58.06
2022-09-04T11:35:46.230Z,55.38
2022-09-04T11:36:46.216Z,55.20
2022-09-04T11:37:46.260Z,55.30
2022-09-04T11:38:46.210Z,57.86
2022-09-04T11:39:46.253Z,57.39
2022-09-04T11:40:46.210Z,57.26
2022-09-04T11:41:46.159Z,55.94
2022-09-04T11:42:46.174Z,56.24
2022-09-04T11:43:46.130Z,57.90
2022-09-04T11:44:46.125Z,57.87
2022-09-04T11:45:46.117Z,55.27
2022-09-04T11:46:46.106Z,57.62
2022-09-04T11:47:46.105Z,52.76
2022-09-04T11:48:46.105Z,54.35
2022-09-04T11:49:46.062Z,55.61
2022-09-04T11:50:46.046Z,56.60
2022-09-04T11:51:46.039Z,55.09
2022-09-04T11:52:46.085Z,54.67
2022-09-04T11:53:46.024Z,51.60
2022-09-04T11:54:46.025Z,51.67
2022-09-04T11:55:49.468Z,51.54
2022-09-04T11:56:47.015Z,54.52
2022-09-04T11:57:45.992Z,51.25
2022-09-04T11:58:45.986Z,52.64
2022-09-04T11:59:46.127Z,50.85
2022-09-04T12:00:45.942Z,50.06
2022-09-04T12:01:47.953Z,53.13
2022-09-04T12:02:52.980Z,51.25
2022-09-04T12:03:45.989Z,51.75
2022-09-04T12:04:46.094Z,52.61
2022-09-04T12:05:45.899Z,54.19
2022-09-04T12:06:45.920Z,50.53
2022-09-04T12:07:45.959Z,48.95
2022-09-04T12:08:45.862Z,50.63
2022-09-04T12:09:45.845Z,52.01
2022-09-04T12:10:45.837Z,52.09
2022-09-04T12:11:45.874Z,50.34
2022-09-04T12:12:45.819Z,50.26
2022-09-04T12:13:45.816Z,49.37
2022-09-04T12:14:45.815Z,50.48
2022-09-04T12:15:45.778Z,51.47
2022-09-04T12:16:45.821Z,51.89
2022-09-04T12:17:45.759Z,50.71
2022-09-04T12:18:45.751Z,51.42
2022-09-04T12:19:45.762Z,51.72
2022-09-04T12:20:45.727Z,51.25
2022-09-04T12:21:45.743Z,51.84
2022-09-04T12:22:45.706Z,52.96
2022-09-04T12:23:45.697Z,54.42
2022-09-04T12:24:45.689Z,55.24
2022-09-04T12:25:45.693Z,55.34
2022-09-04T12:26:51.594Z,53.66
2022-09-04T12:27:46.699Z,55.83
2022-09-04T12:28:45.654Z,56.34
2022-09-04T12:29:45.643Z,56.06
2022-09-04T12:30:45.641Z,52.98
2022-09-04T12:31:45.758Z,55.10
2022-09-04T12:32:46.608Z,57.58
2022-09-04T12:33:45.607Z,58.90
2022-09-04T12:34:45.578Z,55.82
2022-09-04T12:35:45.581Z,57.01
2022-09-04T12:36:45.584Z,58.43
2022-09-04T12:37:45.549Z,56.14
2022-09-04T12:38:45.545Z,56.54
2022-09-04T12:39:45.651Z,57.56
2022-09-04T12:40:45.519Z,57.86
2022-09-04T12:41:49.673Z,56.17
2022-09-04T12:42:45.492Z,61.14
2022-09-04T12:43:45.500Z,59.98
2022-09-04T12:44:45.471Z,57.39
2022-09-04T12:45:45.516Z,57.42
2022-09-04T12:46:45.451Z,57.22
2022-09-04T12:47:45.446Z,58.71
2022-09-04T12:48:45.432Z,59.23
2022-09-04T12:49:45.432Z,58.64
2022-09-04T12:50:46.363Z,60.43
2022-09-04T12:51:45.411Z,59.83
2022-09-04T12:52:45.405Z,58.54
2022-09-04T12:53:48.200Z,58.34
2022-09-04T12:54:46.360Z,59.27